sensor_id;sensor_type;location;lat;lon;timestamp;temperature;humidity
11229;DHT22;5671;47.936;8.716;2023-07-22T00:02:15;10.80;79.10
11229;DHT22;5671;47.936;8.716;2023-07-22T00:04:42;10.80;79.20
11229;DHT22;5671;47.936;8.716;2023-07-22T00:07:09;10.80;78.50
11229;DHT22;5671;47.936;8.716;2023-07-22T00:09:37;10.80;78.90
11229;DHT22;5671;47.936;8.716;2023-07-22T00:12:05;10.80;79.30
11229;DHT22;5671;47.936;8.716;2023-07-22T00:14:32;10.80;79.40
11229;DHT22;5671;47.936;8.716;2023-07-22T00:16:58;10.70;78.70
11229;DHT22;5671;47.936;8.716;2023-07-22T00:19:25;10.70;79.50
11229;DHT22;5671;47.936;8.716;2023-07-22T00:21:52;10.70;80.20
11229;DHT22;5671;47.936;8.716;2023-07-22T00:24:19;10.60;80.50
11229;DHT22;5671;47.936;8.716;2023-07-22T00:26:48;10.60;79.90
11229;DHT22;5671;47.936;8.716;2023-07-22T00:29:16;10.60;79.50
11229;DHT22;5671;47.936;8.716;2023-07-22T00:31:43;10.60;78.90
11229;DHT22;5671;47.936;8.716;2023-07-22T00:34:10;10.60;78.90
11229;DHT22;5671;47.936;8.716;2023-07-22T00:36:37;10.50;78.60
11229;DHT22;5671;47.936;8.716;2023-07-22T00:39:04;10.50;78.90
11229;DHT22;5671;47.936;8.716;2023-07-22T00:41:31;10.50;79.60
11229;DHT22;5671;47.936;8.716;2023-07-22T00:43:59;10.40;79.50
11229;DHT22;5671;47.936;8.716;2023-07-22T00:46:26;10.40;80.00
11229;DHT22;5671;47.936;8.716;2023-07-22T00:48:53;10.30;79.40
11229;DHT22;5671;47.936;8.716;2023-07-22T00:51:20;10.30;78.80
11229;DHT22;5671;47.936;8.716;2023-07-22T00:53:48;10.30;79.20
11229;DHT22;5671;47.936;8.716;2023-07-22T00:56:14;10.30;79.00
11229;DHT22;5671;47.936;8.716;2023-07-22T00:58:41;10.30;79.60
11229;DHT22;5671;47.936;8.716;2023-07-22T01:01:09;10.20;79.50
11229;DHT22;5671;47.936;8.716;2023-07-22T01:03:36;10.20;79.60
11229;DHT22;5671;47.936;8.716;2023-07-22T01:06:03;10.20;80.30
11229;DHT22;5671;47.936;8.716;2023-07-22T01:08:30;10.10;80.10
11229;DHT22;5671;47.936;8.716;2023-07-22T01:10:57;10.10;81.00
11229;DHT22;5671;47.936;8.716;2023-07-22T01:13:24;10.10;81.70
11229;DHT22;5671;47.936;8.716;2023-07-22T01:15:51;10.00;82.10
11229;DHT22;5671;47.936;8.716;2023-07-22T01:18:20;10.00;82.20
11229;DHT22;5671;47.936;8.716;2023-07-22T01:20:47;10.00;81.70
11229;DHT22;5671;47.936;8.716;2023-07-22T01:23:15;10.00;81.60
11229;DHT22;5671;47.936;8.716;2023-07-22T01:25:43;10.00;81.50
11229;DHT22;5671;47.936;8.716;2023-07-22T01:28:10;9.90;81.80
11229;DHT22;5671;47.936;8.716;2023-07-22T01:30:37;10.00;81.80
11229;DHT22;5671;47.936;8.716;2023-07-22T01:33:05;10.00;81.30
11229;DHT22;5671;47.936;8.716;2023-07-22T01:35:32;10.00;81.60
11229;DHT22;5671;47.936;8.716;2023-07-22T01:37:58;10.00;81.40
11229;DHT22;5671;47.936;8.716;2023-07-22T01:40:27;10.00;82.10
11229;DHT22;5671;47.936;8.716;2023-07-22T01:42:54;10.00;82.60
11229;DHT22;5671;47.936;8.716;2023-07-22T01:45:20;10.00;83.10
11229;DHT22;5671;47.936;8.716;2023-07-22T01:47:47;10.00;83.20
11229;DHT22;5671;47.936;8.716;2023-07-22T01:50:14;10.00;83.20
11229;DHT22;5671;47.936;8.716;2023-07-22T01:52:41;10.00;83.20
11229;DHT22;5671;47.936;8.716;2023-07-22T01:55:08;9.90;83.10
11229;DHT22;5671;47.936;8.716;2023-07-22T01:57:37;10.00;83.00
11229;DHT22;5671;47.936;8.716;2023-07-22T02:00:06;10.00;83.70
11229;DHT22;5671;47.936;8.716;2023-07-22T02:02:33;10.00;83.40
11229;DHT22;5671;47.936;8.716;2023-07-22T02:05:00;9.90;83.70
11229;DHT22;5671;47.936;8.716;2023-07-22T02:07:27;10.00;83.90
11229;DHT22;5671;47.936;8.716;2023-07-22T02:09:54;9.90;83.80
11229;DHT22;5671;47.936;8.716;2023-07-22T02:12:21;9.90;83.60
11229;DHT22;5671;47.936;8.716;2023-07-22T02:14:49;9.90;83.60
11229;DHT22;5671;47.936;8.716;2023-07-22T02:17:16;9.90;83.90
11229;DHT22;5671;47.936;8.716;2023-07-22T02:19:43;9.90;84.00
11229;DHT22;5671;47.936;8.716;2023-07-22T02:22:10;9.90;84.10
11229;DHT22;5671;47.936;8.716;2023-07-22T02:24:37;9.80;83.80
11229;DHT22;5671;47.936;8.716;2023-07-22T02:27:04;9.80;83.70
11229;DHT22;5671;47.936;8.716;2023-07-22T02:29:31;9.70;83.80
11229;DHT22;5671;47.936;8.716;2023-07-22T02:31:59;9.70;84.20
11229;DHT22;5671;47.936;8.716;2023-07-22T02:34:26;9.70;84.10
11229;DHT22;5671;47.936;8.716;2023-07-22T02:36:53;9.70;84.30
11229;DHT22;5671;47.936;8.716;2023-07-22T02:39:20;9.60;84.20
11229;DHT22;5671;47.936;8.716;2023-07-22T02:41:48;9.60;83.90
11229;DHT22;5671;47.936;8.716;2023-07-22T02:44:15;9.60;83.00
11229;DHT22;5671;47.936;8.716;2023-07-22T02:46:42;9.60;82.90
11229;DHT22;5671;47.936;8.716;2023-07-22T02:49:10;9.60;82.50
11229;DHT22;5671;47.936;8.716;2023-07-22T02:51:37;9.50;83.60
11229;DHT22;5671;47.936;8.716;2023-07-22T02:54:03;9.50;83.20
11229;DHT22;5671;47.936;8.716;2023-07-22T02:56:30;9.50;82.80
11229;DHT22;5671;47.936;8.716;2023-07-22T02:58:57;9.50;83.40
11229;DHT22;5671;47.936;8.716;2023-07-22T03:01:24;9.50;82.40
11229;DHT22;5671;47.936;8.716;2023-07-22T03:03:51;9.50;83.00
11229;DHT22;5671;47.936;8.716;2023-07-22T03:06:19;9.40;84.10
11229;DHT22;5671;47.936;8.716;2023-07-22T03:08:46;9.50;83.00
11229;DHT22;5671;47.936;8.716;2023-07-22T03:11:14;9.40;83.10
11229;DHT22;5671;47.936;8.716;2023-07-22T03:13:41;9.40;83.00
11229;DHT22;5671;47.936;8.716;2023-07-22T03:16:08;9.40;83.00
11229;DHT22;5671;47.936;8.716;2023-07-22T03:18:35;9.30;83.10
11229;DHT22;5671;47.936;8.716;2023-07-22T03:21:01;9.30;82.40
11229;DHT22;5671;47.936;8.716;2023-07-22T03:23:31;9.30;81.70
11229;DHT22;5671;47.936;8.716;2023-07-22T03:25:58;9.30;81.60
11229;DHT22;5671;47.936;8.716;2023-07-22T03:28:24;9.20;81.20
11229;DHT22;5671;47.936;8.716;2023-07-22T03:30:52;9.20;81.30
11229;DHT22;5671;47.936;8.716;2023-07-22T03:33:19;9.20;81.70
11229;DHT22;5671;47.936;8.716;2023-07-22T03:35:46;9.20;81.90
11229;DHT22;5671;47.936;8.716;2023-07-22T03:38:13;9.10;81.80
11229;DHT22;5671;47.936;8.716;2023-07-22T03:40:41;9.10;81.40
11229;DHT22;5671;47.936;8.716;2023-07-22T03:43:08;9.10;81.40
11229;DHT22;5671;47.936;8.716;2023-07-22T03:45:35;9.10;81.90
11229;DHT22;5671;47.936;8.716;2023-07-22T03:48:02;9.00;82.50
11229;DHT22;5671;47.936;8.716;2023-07-22T03:50:29;9.00;82.00
11229;DHT22;5671;47.936;8.716;2023-07-22T03:52:55;9.00;81.70
11229;DHT22;5671;47.936;8.716;2023-07-22T03:55:22;9.00;82.30
11229;DHT22;5671;47.936;8.716;2023-07-22T03:57:50;8.90;82.00
11229;DHT22;5671;47.936;8.716;2023-07-22T04:00:17;8.90;82.40
11229;DHT22;5671;47.936;8.716;2023-07-22T04:02:44;8.90;81.50
11229;DHT22;5671;47.936;8.716;2023-07-22T04:05:11;8.80;81.90
11229;DHT22;5671;47.936;8.716;2023-07-22T04:07:38;8.80;81.80
11229;DHT22;5671;47.936;8.716;2023-07-22T04:10:06;8.80;81.80
11229;DHT22;5671;47.936;8.716;2023-07-22T04:12:33;8.80;82.50
11229;DHT22;5671;47.936;8.716;2023-07-22T04:15:01;8.80;82.70
11229;DHT22;5671;47.936;8.716;2023-07-22T04:17:28;8.80;81.90
11229;DHT22;5671;47.936;8.716;2023-07-22T04:19:55;8.80;82.20
11229;DHT22;5671;47.936;8.716;2023-07-22T04:22:24;8.80;81.60
11229;DHT22;5671;47.936;8.716;2023-07-22T04:24:51;8.80;81.90
11229;DHT22;5671;47.936;8.716;2023-07-22T04:27:17;8.80;81.50
11229;DHT22;5671;47.936;8.716;2023-07-22T04:29:45;8.80;81.30
11229;DHT22;5671;47.936;8.716;2023-07-22T04:32:13;8.80;82.00
11229;DHT22;5671;47.936;8.716;2023-07-22T04:34:40;8.80;82.40
11229;DHT22;5671;47.936;8.716;2023-07-22T04:37:07;8.80;82.50
11229;DHT22;5671;47.936;8.716;2023-07-22T04:39:34;8.80;82.50
11229;DHT22;5671;47.936;8.716;2023-07-22T04:42:01;8.80;82.60
11229;DHT22;5671;47.936;8.716;2023-07-22T04:44:27;8.70;82.50
11229;DHT22;5671;47.936;8.716;2023-07-22T04:46:54;8.70;82.10
11229;DHT22;5671;47.936;8.716;2023-07-22T04:49:23;8.70;82.30
11229;DHT22;5671;47.936;8.716;2023-07-22T04:51:50;8.70;82.40
11229;DHT22;5671;47.936;8.716;2023-07-22T04:54:16;8.70;81.90
11229;DHT22;5671;47.936;8.716;2023-07-22T04:56:43;8.70;81.60
11229;DHT22;5671;47.936;8.716;2023-07-22T04:59:10;8.70;82.80
11229;DHT22;5671;47.936;8.716;2023-07-22T05:01:39;8.70;83.10
11229;DHT22;5671;47.936;8.716;2023-07-22T05:04:06;8.80;84.00
11229;DHT22;5671;47.936;8.716;2023-07-22T05:06:34;8.80;84.90
11229;DHT22;5671;47.936;8.716;2023-07-22T05:09:01;8.80;85.20
11229;DHT22;5671;47.936;8.716;2023-07-22T05:11:29;8.80;84.80
11229;DHT22;5671;47.936;8.716;2023-07-22T05:13:55;8.90;84.20
11229;DHT22;5671;47.936;8.716;2023-07-22T05:16:22;8.90;84.00
11229;DHT22;5671;47.936;8.716;2023-07-22T05:18:49;8.90;84.50
11229;DHT22;5671;47.936;8.716;2023-07-22T05:21:16;9.00;84.00
11229;DHT22;5671;47.936;8.716;2023-07-22T05:23:44;9.10;84.50
11229;DHT22;5671;47.936;8.716;2023-07-22T05:26:11;9.10;84.70
11229;DHT22;5671;47.936;8.716;2023-07-22T05:28:37;9.10;84.90
11229;DHT22;5671;47.936;8.716;2023-07-22T05:31:04;9.20;84.80
11229;DHT22;5671;47.936;8.716;2023-07-22T05:33:31;9.20;84.50
11229;DHT22;5671;47.936;8.716;2023-07-22T05:35:58;9.30;84.70
11229;DHT22;5671;47.936;8.716;2023-07-22T05:38:25;9.30;84.50
11229;DHT22;5671;47.936;8.716;2023-07-22T05:40:54;9.40;85.10
11229;DHT22;5671;47.936;8.716;2023-07-22T05:43:21;9.50;85.10
11229;DHT22;5671;47.936;8.716;2023-07-22T05:45:48;9.50;84.70
11229;DHT22;5671;47.936;8.716;2023-07-22T05:48:15;9.60;84.90
11229;DHT22;5671;47.936;8.716;2023-07-22T05:50:42;9.70;84.70
11229;DHT22;5671;47.936;8.716;2023-07-22T05:53:09;9.70;84.70
11229;DHT22;5671;47.936;8.716;2023-07-22T05:55:35;9.80;84.00
11229;DHT22;5671;47.936;8.716;2023-07-22T05:58:04;9.90;84.40
11229;DHT22;5671;47.936;8.716;2023-07-22T06:00:33;9.90;84.10
11229;DHT22;5671;47.936;8.716;2023-07-22T06:03:00;10.00;84.50
11229;DHT22;5671;47.936;8.716;2023-07-22T06:05:27;10.10;84.10
11229;DHT22;5671;47.936;8.716;2023-07-22T06:07:54;10.20;84.80
11229;DHT22;5671;47.936;8.716;2023-07-22T06:10:22;10.30;84.80
11229;DHT22;5671;47.936;8.716;2023-07-22T06:12:49;10.40;84.10
11229;DHT22;5671;47.936;8.716;2023-07-22T06:15:17;10.50;84.30
11229;DHT22;5671;47.936;8.716;2023-07-22T06:17:44;10.60;84.10
11229;DHT22;5671;47.936;8.716;2023-07-22T06:20:14;10.70;84.40
11229;DHT22;5671;47.936;8.716;2023-07-22T06:22:41;10.80;83.90
11229;DHT22;5671;47.936;8.716;2023-07-22T06:25:11;10.90;83.30
11229;DHT22;5671;47.936;8.716;2023-07-22T06:30:58;11.20;82.60
11229;DHT22;5671;47.936;8.716;2023-07-22T06:33:25;11.30;82.80
11229;DHT22;5671;47.936;8.716;2023-07-22T06:35:52;11.40;82.40
11229;DHT22;5671;47.936;8.716;2023-07-22T06:38:18;11.50;82.60
11229;DHT22;5671;47.936;8.716;2023-07-22T06:40:49;11.70;82.30
11229;DHT22;5671;47.936;8.716;2023-07-22T06:43:18;11.80;81.80
11229;DHT22;5671;47.936;8.716;2023-07-22T06:45:46;12.00;83.60
11229;DHT22;5671;47.936;8.716;2023-07-22T06:48:16;12.10;82.40
11229;DHT22;5671;47.936;8.716;2023-07-22T06:50:49;12.30;82.10
11229;DHT22;5671;47.936;8.716;2023-07-22T06:53:16;12.40;82.20
11229;DHT22;5671;47.936;8.716;2023-07-22T06:55:51;12.60;82.00
11229;DHT22;5671;47.936;8.716;2023-07-22T06:58:18;12.70;82.10
11229;DHT22;5671;47.936;8.716;2023-07-22T07:00:44;12.80;81.50
11229;DHT22;5671;47.936;8.716;2023-07-22T07:03:12;12.90;81.00
11229;DHT22;5671;47.936;8.716;2023-07-22T07:05:40;13.10;80.40
11229;DHT22;5671;47.936;8.716;2023-07-22T07:08:07;13.20;79.70
11229;DHT22;5671;47.936;8.716;2023-07-22T07:10:40;13.40;80.00
11229;DHT22;5671;47.936;8.716;2023-07-22T07:13:07;13.60;79.70
11229;DHT22;5671;47.936;8.716;2023-07-22T07:15:34;13.70;79.60
11229;DHT22;5671;47.936;8.716;2023-07-22T07:18:01;13.90;80.10
11229;DHT22;5671;47.936;8.716;2023-07-22T07:20:28;14.00;79.50
11229;DHT22;5671;47.936;8.716;2023-07-22T07:22:56;14.20;79.70
11229;DHT22;5671;47.936;8.716;2023-07-22T07:25:28;14.40;78.10
11229;DHT22;5671;47.936;8.716;2023-07-22T07:27:55;14.60;78.30
11229;DHT22;5671;47.936;8.716;2023-07-22T07:30:22;14.80;77.10
11229;DHT22;5671;47.936;8.716;2023-07-22T07:32:48;14.90;77.10
11229;DHT22;5671;47.936;8.716;2023-07-22T07:35:15;15.00;76.60
11229;DHT22;5671;47.936;8.716;2023-07-22T07:37:42;15.20;76.00
11229;DHT22;5671;47.936;8.716;2023-07-22T07:40:12;15.30;73.80
11229;DHT22;5671;47.936;8.716;2023-07-22T07:42:39;15.40;71.10
11229;DHT22;5671;47.936;8.716;2023-07-22T07:45:07;15.50;72.20
11229;DHT22;5671;47.936;8.716;2023-07-22T07:47:34;15.70;71.20
11229;DHT22;5671;47.936;8.716;2023-07-22T07:50:08;15.80;69.30
11229;DHT22;5671;47.936;8.716;2023-07-22T07:52:34;15.90;69.20
11229;DHT22;5671;47.936;8.716;2023-07-22T07:55:04;16.00;67.90
11229;DHT22;5671;47.936;8.716;2023-07-22T07:57:33;16.00;66.50
11229;DHT22;5671;47.936;8.716;2023-07-22T07:59:59;16.20;65.70
11229;DHT22;5671;47.936;8.716;2023-07-22T08:02:26;16.20;63.50
11229;DHT22;5671;47.936;8.716;2023-07-22T08:04:53;16.30;62.90
11229;DHT22;5671;47.936;8.716;2023-07-22T08:07:20;16.30;63.70
11229;DHT22;5671;47.936;8.716;2023-07-22T08:09:47;16.40;63.40
11229;DHT22;5671;47.936;8.716;2023-07-22T08:12:15;16.40;64.60
11229;DHT22;5671;47.936;8.716;2023-07-22T08:14:43;16.50;63.70
11229;DHT22;5671;47.936;8.716;2023-07-22T08:17:10;16.60;60.40
11229;DHT22;5671;47.936;8.716;2023-07-22T08:19:37;16.80;61.20
11229;DHT22;5671;47.936;8.716;2023-07-22T08:22:04;16.90;61.90
11229;DHT22;5671;47.936;8.716;2023-07-22T08:24:34;16.90;58.60
11229;DHT22;5671;47.936;8.716;2023-07-22T08:27:01;16.90;59.00
11229;DHT22;5671;47.936;8.716;2023-07-22T08:29:28;17.00;57.50
11229;DHT22;5671;47.936;8.716;2023-07-22T08:31:56;17.00;59.70
11229;DHT22;5671;47.936;8.716;2023-07-22T08:34:23;17.00;59.90
11229;DHT22;5671;47.936;8.716;2023-07-22T08:36:50;17.10;57.80
11229;DHT22;5671;47.936;8.716;2023-07-22T08:39:16;17.10;57.10
11229;DHT22;5671;47.936;8.716;2023-07-22T08:41:48;17.20;59.00
11229;DHT22;5671;47.936;8.716;2023-07-22T08:44:18;17.40;57.80
11229;DHT22;5671;47.936;8.716;2023-07-22T08:46:46;17.40;58.40
11229;DHT22;5671;47.936;8.716;2023-07-22T08:49:15;17.60;56.50
11229;DHT22;5671;47.936;8.716;2023-07-22T08:51:43;17.70;54.60
11229;DHT22;5671;47.936;8.716;2023-07-22T08:54:11;17.70;55.90
11229;DHT22;5671;47.936;8.716;2023-07-22T08:56:38;17.80;54.80
11229;DHT22;5671;47.936;8.716;2023-07-22T08:59:06;17.70;54.80
11229;DHT22;5671;47.936;8.716;2023-07-22T09:01:33;17.70;55.00
11229;DHT22;5671;47.936;8.716;2023-07-22T09:04:01;17.70;55.40
11229;DHT22;5671;47.936;8.716;2023-07-22T09:06:29;17.70;55.10
11229;DHT22;5671;47.936;8.716;2023-07-22T09:08:57;17.60;56.00
11229;DHT22;5671;47.936;8.716;2023-07-22T09:11:25;17.60;56.50
11229;DHT22;5671;47.936;8.716;2023-07-22T09:13:53;17.60;57.00
11229;DHT22;5671;47.936;8.716;2023-07-22T09:16:21;17.60;56.90
11229;DHT22;5671;47.936;8.716;2023-07-22T09:18:48;17.60;57.70
11229;DHT22;5671;47.936;8.716;2023-07-22T09:21:15;17.50;56.80
11229;DHT22;5671;47.936;8.716;2023-07-22T09:23:43;17.50;57.10
11229;DHT22;5671;47.936;8.716;2023-07-22T09:26:11;17.50;57.40
11229;DHT22;5671;47.936;8.716;2023-07-22T09:28:48;17.50;58.00
11229;DHT22;5671;47.936;8.716;2023-07-22T09:31:15;17.60;59.40
11229;DHT22;5671;47.936;8.716;2023-07-22T09:33:42;17.80;58.30
11229;DHT22;5671;47.936;8.716;2023-07-22T09:36:10;18.00;57.60
11229;DHT22;5671;47.936;8.716;2023-07-22T09:38:36;18.10;58.00
11229;DHT22;5671;47.936;8.716;2023-07-22T09:41:04;18.20;57.70
11229;DHT22;5671;47.936;8.716;2023-07-22T09:43:35;18.30;56.00
11229;DHT22;5671;47.936;8.716;2023-07-22T09:46:06;18.40;57.30
11229;DHT22;5671;47.936;8.716;2023-07-22T09:48:39;18.50;56.20
11229;DHT22;5671;47.936;8.716;2023-07-22T09:51:12;18.70;56.90
11229;DHT22;5671;47.936;8.716;2023-07-22T09:53:44;18.80;57.50
11229;DHT22;5671;47.936;8.716;2023-07-22T09:56:13;19.00;56.50
11229;DHT22;5671;47.936;8.716;2023-07-22T09:58:40;19.20;55.50
11229;DHT22;5671;47.936;8.716;2023-07-22T10:01:11;19.30;54.70
11229;DHT22;5671;47.936;8.716;2023-07-22T10:03:43;19.40;54.50
11229;DHT22;5671;47.936;8.716;2023-07-22T10:06:12;19.40;55.10
11229;DHT22;5671;47.936;8.716;2023-07-22T10:08:40;19.60;53.70
11229;DHT22;5671;47.936;8.716;2023-07-22T10:11:13;19.80;56.00
11229;DHT22;5671;47.936;8.716;2023-07-22T10:13:41;20.00;53.80
11229;DHT22;5671;47.936;8.716;2023-07-22T10:16:08;20.10;53.00
11229;DHT22;5671;47.936;8.716;2023-07-22T10:18:35;20.20;51.00
11229;DHT22;5671;47.936;8.716;2023-07-22T10:21:04;20.40;51.30
11229;DHT22;5671;47.936;8.716;2023-07-22T10:23:31;20.50;52.80
11229;DHT22;5671;47.936;8.716;2023-07-22T10:25:59;20.70;51.90
11229;DHT22;5671;47.936;8.716;2023-07-22T10:28:28;20.80;52.60
11229;DHT22;5671;47.936;8.716;2023-07-22T10:30:55;20.90;50.30
11229;DHT22;5671;47.936;8.716;2023-07-22T10:33:24;20.90;50.70
11229;DHT22;5671;47.936;8.716;2023-07-22T10:36:05;21.10;50.50
11229;DHT22;5671;47.936;8.716;2023-07-22T10:38:34;21.20;51.20
11229;DHT22;5671;47.936;8.716;2023-07-22T10:41:12;21.30;47.30
11229;DHT22;5671;47.936;8.716;2023-07-22T10:43:58;21.40;48.60
11229;DHT22;5671;47.936;8.716;2023-07-22T10:46:32;21.50;47.00
11229;DHT22;5671;47.936;8.716;2023-07-22T10:49:12;21.60;45.20
11229;DHT22;5671;47.936;8.716;2023-07-22T10:51:39;21.50;45.30
11229;DHT22;5671;47.936;8.716;2023-07-22T10:54:13;21.50;45.40
11229;DHT22;5671;47.936;8.716;2023-07-22T10:56:42;21.80;47.20
11229;DHT22;5671;47.936;8.716;2023-07-22T10:59:11;22.00;45.80
11229;DHT22;5671;47.936;8.716;2023-07-22T11:01:44;22.20;44.40
11229;DHT22;5671;47.936;8.716;2023-07-22T11:04:21;22.30;46.10
11229;DHT22;5671;47.936;8.716;2023-07-22T11:06:57;22.10;44.30
11229;DHT22;5671;47.936;8.716;2023-07-22T11:09:37;21.70;43.80
11229;DHT22;5671;47.936;8.716;2023-07-22T11:12:07;21.50;45.10
11229;DHT22;5671;47.936;8.716;2023-07-22T11:14:38;21.50;45.30
11229;DHT22;5671;47.936;8.716;2023-07-22T11:17:07;21.60;46.30
11229;DHT22;5671;47.936;8.716;2023-07-22T11:19:34;21.50;45.90
11229;DHT22;5671;47.936;8.716;2023-07-22T11:22:04;21.70;47.10
11229;DHT22;5671;47.936;8.716;2023-07-22T11:24:33;21.90;44.80
11229;DHT22;5671;47.936;8.716;2023-07-22T11:30:27;22.30;43.90
11229;DHT22;5671;47.936;8.716;2023-07-22T11:32:57;22.40;44.40
11229;DHT22;5671;47.936;8.716;2023-07-22T11:35:25;22.50;43.60
11229;DHT22;5671;47.936;8.716;2023-07-22T11:38:00;22.60;43.80
11229;DHT22;5671;47.936;8.716;2023-07-22T11:40:33;22.70;43.50
11229;DHT22;5671;47.936;8.716;2023-07-22T11:43:00;22.80;41.70
11229;DHT22;5671;47.936;8.716;2023-07-22T11:45:31;22.80;41.20
11229;DHT22;5671;47.936;8.716;2023-07-22T11:47:58;23.00;42.00
11229;DHT22;5671;47.936;8.716;2023-07-22T11:50:31;23.00;39.60
11229;DHT22;5671;47.936;8.716;2023-07-22T11:52:58;23.10;40.20
11229;DHT22;5671;47.936;8.716;2023-07-22T11:55:25;23.20;41.10
11229;DHT22;5671;47.936;8.716;2023-07-22T11:57:53;23.30;40.70
11229;DHT22;5671;47.936;8.716;2023-07-22T12:00:20;23.50;39.00
11229;DHT22;5671;47.936;8.716;2023-07-22T12:02:51;23.50;40.10
11229;DHT22;5671;47.936;8.716;2023-07-22T12:05:22;23.50;40.60
11229;DHT22;5671;47.936;8.716;2023-07-22T12:07:49;23.70;38.40
11229;DHT22;5671;47.936;8.716;2023-07-22T12:10:16;23.80;40.20
11229;DHT22;5671;47.936;8.716;2023-07-22T12:12:44;23.50;39.10
11229;DHT22;5671;47.936;8.716;2023-07-22T12:15:13;23.40;38.90
11229;DHT22;5671;47.936;8.716;2023-07-22T12:17:48;23.40;38.70
11229;DHT22;5671;47.936;8.716;2023-07-22T12:20:16;23.50;37.40
11229;DHT22;5671;47.936;8.716;2023-07-22T12:22:44;23.10;39.00
11229;DHT22;5671;47.936;8.716;2023-07-22T12:25:11;22.80;39.40
11229;DHT22;5671;47.936;8.716;2023-07-22T12:27:37;22.70;40.90
11229;DHT22;5671;47.936;8.716;2023-07-22T12:30:05;23.10;40.10
11229;DHT22;5671;47.936;8.716;2023-07-22T12:32:33;23.40;41.60
11229;DHT22;5671;47.936;8.716;2023-07-22T12:35:00;23.30;39.60
11229;DHT22;5671;47.936;8.716;2023-07-22T12:37:30;23.60;40.40
11229;DHT22;5671;47.936;8.716;2023-07-22T12:39:57;23.90;40.90
11229;DHT22;5671;47.936;8.716;2023-07-22T12:42:23;24.10;38.30
11229;DHT22;5671;47.936;8.716;2023-07-22T12:44:50;24.30;38.70
11229;DHT22;5671;47.936;8.716;2023-07-22T12:47:17;24.30;38.10
11229;DHT22;5671;47.936;8.716;2023-07-22T12:49:44;24.30;36.50
11229;DHT22;5671;47.936;8.716;2023-07-22T12:52:11;24.30;37.30
11229;DHT22;5671;47.936;8.716;2023-07-22T12:54:40;24.40;37.30
11229;DHT22;5671;47.936;8.716;2023-07-22T12:57:08;24.50;37.70
11229;DHT22;5671;47.936;8.716;2023-07-22T12:59:34;24.60;36.80
11229;DHT22;5671;47.936;8.716;2023-07-22T13:02:01;24.60;37.00
11229;DHT22;5671;47.936;8.716;2023-07-22T13:04:28;24.70;39.40
11229;DHT22;5671;47.936;8.716;2023-07-22T13:06:55;24.70;37.60
11229;DHT22;5671;47.936;8.716;2023-07-22T13:09:22;24.70;38.70
11229;DHT22;5671;47.936;8.716;2023-07-22T13:11:50;24.70;37.30
11229;DHT22;5671;47.936;8.716;2023-07-22T13:14:17;24.90;36.10
11229;DHT22;5671;47.936;8.716;2023-07-22T13:16:44;25.00;37.10
11229;DHT22;5671;47.936;8.716;2023-07-22T13:19:11;24.90;36.40
11229;DHT22;5671;47.936;8.716;2023-07-22T13:21:37;24.60;36.60
11229;DHT22;5671;47.936;8.716;2023-07-22T13:24:04;24.80;35.80
11229;DHT22;5671;47.936;8.716;2023-07-22T13:26:31;24.90;37.70
11229;DHT22;5671;47.936;8.716;2023-07-22T13:29:00;24.70;36.30
11229;DHT22;5671;47.936;8.716;2023-07-22T13:31:26;24.80;36.60
11229;DHT22;5671;47.936;8.716;2023-07-22T13:33:53;24.90;37.30
11229;DHT22;5671;47.936;8.716;2023-07-22T13:36:20;24.80;36.70
11229;DHT22;5671;47.936;8.716;2023-07-22T13:38:47;25.00;36.80
11229;DHT22;5671;47.936;8.716;2023-07-22T13:41:14;25.00;35.80
11229;DHT22;5671;47.936;8.716;2023-07-22T13:43:40;25.00;37.20
11229;DHT22;5671;47.936;8.716;2023-07-22T13:46:09;25.10;35.20
11229;DHT22;5671;47.936;8.716;2023-07-22T13:48:36;25.20;34.10
11229;DHT22;5671;47.936;8.716;2023-07-22T13:51:02;25.10;35.10
11229;DHT22;5671;47.936;8.716;2023-07-22T13:53:29;25.20;36.50
11229;DHT22;5671;47.936;8.716;2023-07-22T13:55:56;25.30;34.90
11229;DHT22;5671;47.936;8.716;2023-07-22T13:58:23;24.90;36.90
11229;DHT22;5671;47.936;8.716;2023-07-22T14:00:50;25.00;35.40
11229;DHT22;5671;47.936;8.716;2023-07-22T14:03:19;25.10;36.40
11229;DHT22;5671;47.936;8.716;2023-07-22T14:05:46;25.20;35.70
11229;DHT22;5671;47.936;8.716;2023-07-22T14:08:12;25.30;37.10
11229;DHT22;5671;47.936;8.716;2023-07-22T14:10:39;25.20;36.40
11229;DHT22;5671;47.936;8.716;2023-07-22T14:13:06;24.90;36.80
11229;DHT22;5671;47.936;8.716;2023-07-22T14:15:33;25.00;37.00
11229;DHT22;5671;47.936;8.716;2023-07-22T14:18:01;24.90;37.70
11229;DHT22;5671;47.936;8.716;2023-07-22T14:20:30;25.00;36.80
11229;DHT22;5671;47.936;8.716;2023-07-22T14:22:57;24.80;38.60
11229;DHT22;5671;47.936;8.716;2023-07-22T14:25:24;24.90;36.90
11229;DHT22;5671;47.936;8.716;2023-07-22T14:27:51;24.80;36.40
11229;DHT22;5671;47.936;8.716;2023-07-22T14:30:18;24.90;36.80
11229;DHT22;5671;47.936;8.716;2023-07-22T14:32:44;25.10;37.10
11229;DHT22;5671;47.936;8.716;2023-07-22T14:35:11;25.30;35.80
11229;DHT22;5671;47.936;8.716;2023-07-22T14:37:39;25.30;35.10
11229;DHT22;5671;47.936;8.716;2023-07-22T14:40:07;25.30;34.80
11229;DHT22;5671;47.936;8.716;2023-07-22T14:42:35;25.30;35.20
11229;DHT22;5671;47.936;8.716;2023-07-22T14:45:02;25.30;34.60
11229;DHT22;5671;47.936;8.716;2023-07-22T14:47:29;25.40;35.60
11229;DHT22;5671;47.936;8.716;2023-07-22T14:49:56;25.50;36.50
11229;DHT22;5671;47.936;8.716;2023-07-22T14:52:22;25.60;36.00
11229;DHT22;5671;47.936;8.716;2023-07-22T14:54:51;25.50;36.70
11229;DHT22;5671;47.936;8.716;2023-07-22T14:57:18;25.40;35.40
11229;DHT22;5671;47.936;8.716;2023-07-22T14:59:45;25.50;35.30
11229;DHT22;5671;47.936;8.716;2023-07-22T15:02:14;25.40;34.90
11229;DHT22;5671;47.936;8.716;2023-07-22T15:04:40;25.40;36.20
11229;DHT22;5671;47.936;8.716;2023-07-22T15:07:07;25.60;35.60
11229;DHT22;5671;47.936;8.716;2023-07-22T15:09:37;25.40;34.90
11229;DHT22;5671;47.936;8.716;2023-07-22T15:12:13;25.40;35.90
11229;DHT22;5671;47.936;8.716;2023-07-22T15:14:40;25.40;35.70
11229;DHT22;5671;47.936;8.716;2023-07-22T15:17:07;25.60;36.30
11229;DHT22;5671;47.936;8.716;2023-07-22T15:19:37;25.50;35.40
11229;DHT22;5671;47.936;8.716;2023-07-22T15:22:04;25.40;34.70
11229;DHT22;5671;47.936;8.716;2023-07-22T15:24:31;25.40;35.90
11229;DHT22;5671;47.936;8.716;2023-07-22T15:26:58;25.20;35.70
11229;DHT22;5671;47.936;8.716;2023-07-22T15:29:26;25.20;35.90
11229;DHT22;5671;47.936;8.716;2023-07-22T15:31:53;25.20;35.50
11229;DHT22;5671;47.936;8.716;2023-07-22T15:34:19;25.20;36.00
11229;DHT22;5671;47.936;8.716;2023-07-22T15:36:46;25.10;35.90
11229;DHT22;5671;47.936;8.716;2023-07-22T15:39:13;25.10;35.60
11229;DHT22;5671;47.936;8.716;2023-07-22T15:41:40;25.00;36.60
11229;DHT22;5671;47.936;8.716;2023-07-22T15:44:07;25.00;35.50
11229;DHT22;5671;47.936;8.716;2023-07-22T15:46:35;25.00;36.70
11229;DHT22;5671;47.936;8.716;2023-07-22T15:49:02;25.00;36.50
11229;DHT22;5671;47.936;8.716;2023-07-22T15:51:28;25.10;36.20
11229;DHT22;5671;47.936;8.716;2023-07-22T15:53:55;25.10;36.30
11229;DHT22;5671;47.936;8.716;2023-07-22T15:56:22;25.20;35.20
11229;DHT22;5671;47.936;8.716;2023-07-22T15:58:49;25.10;34.90
11229;DHT22;5671;47.936;8.716;2023-07-22T16:01:16;25.10;35.60